METAR Data
IDs: Format: Raw Decoded Include TAF

Data at: 1519 UTC 21 Sep 2018

KFFM 211515Z AUTO 34013G19KT 10SM BKN020 OVC028 07/05 A3018 RMK AO2
KFFM 211455Z AUTO 34016G23KT 10SM BKN018 07/05 RMK AO2
KFFM 211435Z AUTO 34020G28KT 10SM OVC014 07/05 A3015 RMK AO2
KFFM 211415Z AUTO 34018G26KT 10SM OVC014 06/05 A3013 RMK AO2
KFFM 211355Z AUTO 34015G26KT 10SM OVC014 06/06 A3011 RMK AO2
KFFM 211335Z AUTO 34016G28KT 5SM BR OVC014 06/06 A3010 RMK AO2
KFFM 211315Z AUTO 34013G21KT 10SM OVC012 06/06 A3009 RMK AO2
KFFM 211255Z AUTO 34016G26KT 10SM OVC012 06/06 A3007 RMK AO2
KFFM 211235Z AUTO 34016G26KT 10SM OVC012 06/06 A3004 RMK AO2
KFFM 211215Z AUTO 34016G25KT 10SM OVC010 06/06 A3002 RMK AO2
KFFM 211155Z AUTO 34018G25KT 10SM OVC010 06/06 A3000 RMK AO2
KFFM 211135Z AUTO 34018G23KT 10SM OVC008 06/06 A2998 RMK AO2
KFFM 211115Z AUTO 33019G25KT 10SM OVC008 06/06 A2998 RMK AO2
KFFM 211055Z AUTO 34016G20KT 10SM OVC008 06/06 A2995 RMK AO2
KFFM 211036Z AUTO 33016G21KT 10SM OVC008 07/07 A2994 RMK AO2
KFFM 211035Z AUTO 33016G21KT 10SM OVC010 07/07 A2994 RMK AO2
KFFM 211015Z AUTO 33013G22KT 7SM BKN008 OVC014 07/07 A2991 RMK AO2
KFFM 210955Z AUTO 34015G26KT 5SM BR OVC010 07/07 A2990 RMK AO2
KFFM 210936Z AUTO 34014G22KT 5SM BR BKN010 OVC014 07/07 A2988 RMK AO2
KFFM 210935Z AUTO 33014G22KT 7SM BKN010 OVC014 07/07 A2988 RMK AO2
KFFM 210915Z AUTO 34013G24KT 5SM BR OVC010 07/07 A2986 RMK AO2
KFFM 210855Z AUTO 34013G21KT 5SM BR OVC010 07/07 A2984 RMK AO2
KFFM 210836Z AUTO 34014G22KT 4SM BR BKN008 OVC013 07/07 A2983 RMK AO2
KFFM 210835Z AUTO 34016G22KT 4SM BR BKN008 OVC013 07/07 A2983 RMK AO2
KFFM 210815Z AUTO 33014G23KT 4SM BR OVC008 07/07 A2981 RMK AO2
KFFM 210755Z AUTO 33015G21KT 4SM BR OVC008 07/07 A2981 RMK AO2
KFFM 210736Z AUTO 33015G22KT 3SM BR OVC006 08/08 A2979 RMK AO2
KFFM 210735Z AUTO 33016G22KT 3SM BR OVC006 08/08 A2979 RMK AO2
KFFM 210715Z AUTO 33016G22KT 3SM BR OVC006 08/08 A2978 RMK AO2
KFFM 210655Z AUTO 32015G23KT 5SM BR OVC006 08/08 A2977 RMK AO2
KFFM 210636Z AUTO 32017G23KT 5SM BR OVC004 08/08 A2975 RMK AO2
KFFM 210635Z AUTO 32017G21KT 5SM BR OVC004 08/08 A2975 RMK AO2
KFFM 210615Z AUTO 32017G25KT 5SM BR OVC004 09/09 A2974 RMK AO2
KFFM 210555Z AUTO 31018G22KT 3SM BR OVC006 10/10 A2973 RMK AO2 P0001
KFFM 210536Z AUTO 33015G20KT 3SM BR BKN006 OVC011 11/11 A2972 RMK AO2
KFFM 210535Z AUTO 33014G20KT 3SM BR OVC008 11/11 A2972 RMK AO2
KFFM 210515Z AUTO 34013G20KT 3SM BR BKN006 OVC010 11/11 A2971 RMK AO2
KFFM 210455Z AUTO 34012KT 3SM BR OVC006 11/11 A2970 RMK AO2 P0001
KFFM 210436Z AUTO 33012G16KT 3SM BR OVC006 11/11 A2969 RMK AO2 P0001
KFFM 210435Z AUTO 33012G16KT 3SM BR OVC006 11/11 A2969 RMK AO2 P0001
KFFM 210415Z AUTO 32012G19KT 3SM BR OVC006 12/12 A2969 RMK AO2 P0001
KFFM 210355Z AUTO 32013KT 2 1/2SM BR OVC006 12/12 A2968 RMK AO2
KFFM 210336Z AUTO 32010KT 4SM BR OVC006 12/12 A2967 RMK AO2
KFFM 210335Z AUTO 32010KT 4SM BR OVC006 12/12 A2967 RMK AO2
KFFM 210315Z AUTO 32009KT 10SM SCT006 OVC013 12/12 A2967 RMK AO2
KFFM 210255Z AUTO 32010KT 10SM OVC013 13/13 A2967 RMK AO2
KFFM 210236Z AUTO 32007KT 10SM OVC013 13/13 A2967 RMK AO2
KFFM 210235Z AUTO 32008KT 10SM OVC013 13/13 A2967 RMK AO2
KFFM 210215Z AUTO 33004KT 10SM SCT013 BKN035 OVC070 13/13 A2966 RMK AO2
KFFM 210155Z AUTO 02005KT 10SM SCT035 BKN070 OVC075 13/13 A2965 RMK AO2
KFFM 210136Z AUTO 05009KT 10SM BKN041 BKN070 13/13 A2964 RMK AO2
KFFM 210135Z AUTO 05007KT 10SM BKN041 BKN070 13/13 A2964 RMK AO2
KFFM 210115Z AUTO 04004KT 10SM OVC043 13/13 A2964 RMK AO2
KFFM 210055Z AUTO 06004KT 10SM BKN044 OVC050 13/13 A2963 RMK AO2
KFFM 210036Z AUTO 05008G14KT 10SM SCT050 13/13 A2963 RMK AO2
KFFM 210035Z AUTO 05009G14KT 10SM SCT050 13/13 A2963 RMK AO2
KFFM 210015Z AUTO 05007G14KT 10SM SCT029 13/13 A2962 RMK AO2
KFFM 202355Z AUTO 06007KT 7SM -RA SCT014 BKN030 OVC055 13/13 A2963 RMK AO2 P0001
KFFM 202336Z AUTO 02005KT 2 1/2SM RA SCT011 SCT020 OVC031 13/13 A2966 RMK AO2 VIS 1 1/2V4 P0001 P0001
KFFM 202335Z AUTO 03004KT 2 1/2SM RA SCT011 BKN031 OVC035 13/13 A2966 RMK AO2 VIS 1 1/2V4 P0001
KFFM 202315Z AUTO 03007KT 5SM -RA BKN010 BKN016 OVC026 13/13 A2966 RMK AO2 P0001 P0001
KFFM 202255Z AUTO 35007G15KT 4SM RA BKN012 OVC020 13/13 A2967 RMK AO2 P0001 P0001
KFFM 202235Z AUTO 06008G14KT 5SM -RA BKN010 OVC014 13/13 A2964 RMK AO2 P0001
KFFM 202216Z AUTO 06009KT 7SM BKN009 OVC022 14/14 A2965 RMK AO2 P0001
KFFM 202215Z AUTO 05011KT 7SM SCT009 BKN012 OVC022 14/14 A2965 RMK AO2 P0001
KFFM 202155Z AUTO 07012G16KT 3SM BR BKN012 OVC022 14/14 A2965 RMK AO2 P0001
KFFM 202135Z AUTO 07011G17KT 4SM BR BKN008 OVC012 14/14 A2967 RMK AO2 LTG DSNT SE P0001
KFFM 202115Z AUTO 08010G15KT 5SM BR OVC008 14/14 A2969 RMK AO2
KFFM 202055Z AUTO 07013G20KT 4SM BR OVC008 14/14 A2970 RMK AO2 P0001
KFFM 202035Z AUTO 08009KT 10SM UP OVC010 14/14 A2971 RMK AO2 P0001
KFFM 202015Z AUTO 09008G19KT 10SM OVC008 14/14 A2972 RMK AO2
KFFM 201955Z AUTO 08013G19KT 5SM -RA BKN008 OVC020 13/13 A2973 RMK AO2 P0001
KFFM 201935Z AUTO 07013G16KT 7SM SCT008 BKN020 OVC040 14/14 A2974 RMK AO2 P0001
KFFM 201915Z AUTO 09010G18KT 10SM BKN008 BKN024 OVC048 13/13 A2977 RMK AO2
KFFM 201855Z AUTO 08013G19KT 7SM BKN008 OVC020 13/13 A2979 RMK AO2 P0001
KFFM 201835Z AUTO 09009KT 10SM -DZ BKN008 BKN020 OVC037 14/14 A2981 RMK AO2 P0001
KFFM 201815Z AUTO 09008G16KT 10SM -DZ SCT008 SCT038 BKN080 14/14 A2982 RMK AO2
KFFM 201755Z AUTO 09009KT 10SM -RA SCT020 BKN080 13/13 A2982 RMK AO2 P0001
KFFM 201735Z AUTO 10009G15KT 5SM -RA SCT009 BKN020 13/13 A2984 RMK AO2 P0001
KFFM 201715Z AUTO 09009G17KT 7SM SCT009 BKN020 13/13 A2985 RMK AO2 P0001
KFFM 201655Z AUTO 09010G14KT 10SM -DZ SCT009 SCT020 BKN025 13/13 A2986 RMK AO2 P0001
KFFM 201636Z AUTO 10008KT 3SM RA SCT011 BKN021 OVC026 13/13 A2987 RMK AO2 P0001
KFFM 201635Z AUTO 10007KT 2 1/2SM RA SCT011 BKN021 OVC026 13/13 A2987 RMK AO2 P0001
KFFM 201615Z AUTO 10007KT 10SM -RA SCT007 BKN019 OVC026 12/12 A2988 RMK AO2 P0001
KFFM 201555Z AUTO 09007G14KT 10SM -RA SCT008 BKN023 OVC032 12/12 A2990 RMK AO2 P0001
KFFM 201536Z AUTO 09008KT 2 1/2SM RA SCT007 BKN010 OVC023 12/12 A2991 RMK AO2 VIS 1 3/4V5 P0001
KFFM 201535Z AUTO 09008KT 2 1/2SM RA SCT007 BKN010 OVC029 12/12 A2991 RMK AO2 VIS 1 3/4V5 P0001 P0001
KFFM 201515Z AUTO 11010G16KT 1 1/2SM RA OVC012 13/12 A2993 RMK AO2 VIS 1/2V5 P0001 P0001
KFFM 201455Z AUTO 09007G15KT 10SM OVC012 13/11 A2992 RMK AO2 LTG DSNT S
KFFM 201436Z AUTO 10007G16KT 10SM OVC012 13/11 A2992 RMK AO2
KFFM 201435Z AUTO 10009G16KT 10SM OVC012 13/11 A2992 RMK AO2
KFFM 201415Z AUTO 09011G20KT 065V125 10SM OVC012 13/10 A2993 RMK AO2
KFFM 201355Z AUTO 10010G17KT 10SM BKN014 BKN040 OVC050 13/10 A2994 RMK AO2
KFFM 201336Z AUTO 09010G21KT 10SM SCT014 SCT040 OVC048 13/10 A2994 RMK AO2
KFFM 201335Z AUTO 09014G21KT 10SM SCT014 SCT042 OVC048 13/10 A2994 RMK AO2
KFFM 201315Z AUTO 09010G19KT 10SM OVC044 13/09 A2995 RMK AO2
KFFM 201255Z AUTO 08011G16KT 10SM SCT038 OVC044 13/10 A2995 RMK AO2
KFFM 201236Z AUTO 08009G15KT 10SM SCT038 13/10 A2996 RMK AO2
KFFM 201235Z AUTO 08011G15KT 10SM SCT038 13/10 A2996 RMK AO2
KFFM 201215Z AUTO 08011G16KT 10SM SCT090 13/10 A2997 RMK AO2
KFFM 201155Z AUTO 08013G16KT 10SM OVC090 13/10 A2998 RMK AO2
KFFM 201136Z AUTO 08012G17KT 10SM SCT075 OVC090 13/10 A3000 RMK AO2
KFFM 201135Z AUTO 08012G17KT 10SM SCT040 SCT075 OVC090 13/10 A3000 RMK AO2
KFFM 201115Z AUTO 08011G16KT 10SM SCT040 BKN070 OVC110 13/10 A3000 RMK AO2
KFFM 201055Z AUTO 08011G15KT 10SM SCT090 BKN110 13/10 A3000 RMK AO2
KFFM 201036Z AUTO 08011G19KT 10SM SCT090 13/10 A2999 RMK AO2
KFFM 201035Z AUTO 08012G19KT 10SM SCT090 13/10 A2999 RMK AO2
KFFM 201015Z AUTO 08011G16KT 10SM SCT090 BKN110 13/10 A3001 RMK AO2
KFFM 200955Z AUTO 08012KT 10SM BKN110 13/10 A3002 RMK AO2
KFFM 200936Z AUTO 08011G16KT 10SM SCT110 13/10 A3003 RMK AO2
KFFM 200935Z AUTO 08011G16KT 10SM SCT110 13/10 A3003 RMK AO2
KFFM 200915Z AUTO 09004KT 10SM SCT048 13/10 A3004 RMK AO2
KFFM 200855Z AUTO 10004KT 10SM SCT048 13/10 A3005 RMK AO2
KFFM 200836Z AUTO 08006KT 10SM CLR 13/10 A3004 RMK AO2
KFFM 200835Z AUTO 08006KT 10SM CLR 13/10 A3005 RMK AO2
KFFM 200815Z AUTO 07007KT 10SM CLR 13/10 A3003 RMK AO2
KFFM 200755Z AUTO 06006KT 10SM CLR 13/10 A3003 RMK AO2
KFFM 200736Z AUTO 06004KT 10SM CLR 13/11 A3004 RMK AO2
KFFM 200735Z AUTO 06004KT 10SM CLR 13/11 A3004 RMK AO2
KFFM 200715Z AUTO 06005KT 10SM CLR 12/11 A3005 RMK AO2
KFFM 200655Z AUTO 07004KT 10SM CLR 12/11 A3005 RMK AO2
KFFM 200636Z AUTO 05006KT 10SM CLR 12/11 A3005 RMK AO2
KFFM 200635Z AUTO 05005KT 10SM CLR 12/11 A3005 RMK AO2
KFFM 200615Z AUTO 00000KT 10SM CLR 12/10 A3005 RMK AO2
KFFM 200555Z AUTO 03003KT 10SM CLR 12/10 A3006 RMK AO2
KFFM 200536Z AUTO 00000KT 10SM CLR 12/10 A3008 RMK AO2
KFFM 200535Z AUTO 00000KT 10SM CLR 13/10 A3007 RMK AO2
KFFM 200515Z AUTO 05003KT 10SM CLR 13/10 A3007 RMK AO2
KFFM 200455Z AUTO 06004KT 10SM CLR 13/10 A3007 RMK AO2
KFFM 200436Z AUTO 05003KT 10SM CLR 13/10 A3007 RMK AO2
KFFM 200435Z AUTO 05003KT 10SM CLR 13/10 A3007 RMK AO2
KFFM 200415Z AUTO 06003KT 10SM CLR 13/10 A3007 RMK AO2
KFFM 200355Z AUTO 06003KT 10SM CLR 13/10 A3007 RMK AO2
KFFM 200336Z AUTO 05003KT 10SM SCT080 14/10 A3007 RMK AO2
KFFM 200335Z AUTO 05003KT 10SM SCT080 14/10 A3007 RMK AO2